CPX106 Details

Departure: Seattle-Tacoma International Airport (KSEA)
Arrival: Ted Stevens Anchorage International Airport (PANC)
Route: BANGR9 ARRIE FOCHE PRYCE BKA LAIRE JOH WITTI4


Current Weather Information
KSEA 232153Z 27009KT 10SM FEW040 SCT250 24/10 A2994 RMK AO2 SLP142 T02390100
PANC 232153Z 15009KT 10SM FEW045 BKN080 OVC150 13/06 A3003 RMK AO2 SLP168 T01280061 $